Time;durP1;ratioP1;P1;durP2;ratioP2;P2;SDS_P1;SDS_P2;PMS_P1;PMS_P2;Temp;Humidity;BMP_temperature;BMP_pressure;BME280_temperature;BME280_humidity;BME280_pressure;Samples;Min_cycle;Max_cycle;Signal;HPM_P1;HPM_P2
2022/08/05 00:00:59;;;;;;;14.60;8.68;;;;;;;18.15;100.00;101449.53;4946471;28;20856;-69
2022/08/05 00:03:25;;;;;;;12.98;7.88;;;;;;;18.19;100.00;101466.34;4946982;28;20039;-70
2022/08/05 00:05:50;;;;;;;15.77;8.80;;;;;;;18.11;100.00;101467.84;4948362;28;20153;-70
2022/08/05 00:08:16;;;;;;;11.35;7.57;;;;;;;18.10;100.00;101454.47;4948185;28;20550;-70
2022/08/05 00:10:41;;;;;;;10.93;7.90;;;;;;;18.07;100.00;101442.13;4948618;28;20049;-70
2022/08/05 00:13:07;;;;;;;15.55;8.73;;;;;;;18.01;100.00;101429.13;4948808;28;20374;-70
2022/08/05 00:15:32;;;;;;;13.20;8.23;;;;;;;17.81;100.00;101427.25;4949038;28;20566;-69
2022/08/05 00:17:57;;;;;;;14.05;7.93;;;;;;;17.90;100.00;101437.28;4948651;28;20042;-70
2022/08/05 00:20:23;;;;;;;13.30;7.53;;;;;;;17.90;100.00;101448.09;4947844;28;20134;-70
2022/08/05 00:22:49;;;;;;;15.80;7.88;;;;;;;17.97;100.00;101443.88;4928844;29;20028;-70
2022/08/05 00:25:14;;;;;;;18.45;8.23;;;;;;;17.94;100.00;101437.88;4947496;28;20054;-69
2022/08/05 00:27:39;;;;;;;14.38;8.05;;;;;;;17.88;100.00;101436.56;4936099;29;20048;-69
2022/08/05 00:30:05;;;;;;;20.15;9.38;;;;;;;17.85;100.00;101434.13;4938865;28;20063;-70
2022/08/05 00:32:31;;;;;;;13.30;8.50;;;;;;;17.77;100.00;101433.91;4944793;29;20085;-70
2022/08/05 00:34:56;;;;;;;11.77;7.30;;;;;;;17.76;100.00;101422.25;4942793;29;20570;-69
2022/08/05 00:37:22;;;;;;;13.10;8.10;;;;;;;17.73;100.00;101421.69;4941559;28;20031;-70
2022/08/05 00:39:47;;;;;;;11.20;7.50;;;;;;;17.72;100.00;101425.31;4943145;28;20786;-70
2022/08/05 00:42:15;;;;;;;19.05;7.75;;;;;;;17.68;100.00;101421.19;4942731;28;20510;-69
2022/08/05 00:44:41;;;;;;;11.20;7.75;;;;;;;17.57;100.00;101411.25;4941915;29;20047;-69
2022/08/05 00:47:07;;;;;;;14.23;7.28;;;;;;;17.61;100.00;101410.03;4944070;29;20066;-69
2022/08/05 00:49:32;;;;;;;12.05;8.45;;;;;;;17.59;100.00;101410.16;4943702;29;20300;-70
2022/08/05 00:51:58;;;;;;;12.70;8.43;;;;;;;17.55;100.00;101414.09;4943706;29;20047;-70
2022/08/05 00:54:23;;;;;;;13.38;7.97;;;;;;;17.51;100.00;101404.53;4944123;28;20046;-70
2022/08/05 00:56:48;;;;;;;18.80;7.65;;;;;;;17.58;100.00;101419.25;4945439;28;20047;-69
2022/08/05 00:59:14;;;;;;;14.02;8.48;;;;;;;17.50;100.00;101420.88;4944746;28;20043;-69
2022/08/05 01:01:40;;;;;;;20.23;8.30;;;;;;;17.50;100.00;101415.47;4945076;29;20043;-71
2022/08/05 01:04:05;;;;;;;14.57;7.88;;;;;;;17.61;100.00;101413.56;4943782;29;20047;-70
2022/08/05 01:06:31;;;;;;;15.00;7.55;;;;;;;17.48;100.00;101421.00;4944426;28;20035;-70
2022/08/05 01:08:56;;;;;;;19.95;7.70;;;;;;;17.47;100.00;101418.41;4944354;29;20039;-70
2022/08/05 01:11:27;;;;;;;13.98;7.45;;;;;;;17.44;100.00;101414.16;4944521;28;20043;-70
2022/08/05 01:13:58;;;;;;;16.35;8.18;;;;;;;17.41;100.00;101416.22;4955858;28;20043;-70
2022/08/05 01:16:37;;;;;;;13.33;7.10;;;;;;;17.43;100.00;101419.69;4945810;28;20045;-70
2022/08/05 01:19:20;;;;;;;11.65;7.95;;;;;;;17.45;100.00;101412.31;4944149;28;21071;-70
2022/08/05 01:22:02;;;;;;;16.63;8.38;;;;;;;17.44;100.00;101421.38;4943548;29;20048;-70
2022/08/05 01:24:51;;;;;;;20.27;8.80;;;;;;;17.35;100.00;101418.44;4943986;28;20853;-70
2022/08/05 01:27:54;;;;;;;14.77;8.60;;;;;;;17.31;100.00;101416.13;4955769;28;20035;-70
2022/08/05 01:30:20;;;;;;;;;;;;;;;17.29;100.00;101415.41;4944775;28;20798;-70
2022/08/05 01:32:48;;;;;;;20.40;8.20;;;;;;;17.32;100.00;101423.25;4942018;29;19972;-70
2022/08/05 01:35:16;;;;;;;17.65;7.93;;;;;;;17.35;100.00;101431.94;4943521;29;20663;-69
2022/08/05 01:37:46;;;;;;;21.85;7.22;;;;;;;17.35;100.00;101431.06;4941574;28;20035;-69
2022/08/05 01:40:14;;;;;;;16.40;8.25;;;;;;;17.27;100.00;101420.94;4943433;28;20056;-69
2022/08/05 01:42:42;;;;;;;17.35;8.35;;;;;;;17.26;100.00;101421.91;4941856;29;20054;-69
2022/08/05 01:45:09;;;;;;;14.13;8.27;;;;;;;17.35;100.00;101436.47;4942935;29;20062;-68
2022/08/05 01:47:35;;;;;;;13.30;8.43;;;;;;;17.41;100.00;101446.75;4943156;28;20039;-69
2022/08/05 01:50:07;;;;;;;15.57;8.48;;;;;;;17.46;100.00;101460.69;4942833;28;20495;-69
2022/08/05 01:52:36;;;;;;;12.07;7.63;;;;;;;17.40;100.00;101468.44;4941323;29;20272;-69
2022/08/05 01:55:06;;;;;;;17.58;8.35;;;;;;;17.34;100.00;101462.56;4943163;28;20543;-69
2022/08/05 01:57:34;;;;;;;19.23;8.40;;;;;;;17.42;100.00;101470.06;4930179;28;20051;-70
2022/08/05 02:00:02;;;;;;;13.55;7.97;;;;;;;17.55;100.00;101477.97;4929744;29;20059;-70
2022/08/05 02:02:31;;;;;;;16.80;7.85;;;;;;;17.54;100.00;101476.25;4937384;29;20039;-69
2022/08/05 02:05:02;;;;;;;21.17;8.45;;;;;;;17.45;100.00;101477.03;4934866;28;20498;-70
2022/08/05 02:07:29;;;;;;;15.93;7.93;;;;;;;17.35;100.00;101458.91;4939217;29;20040;-70
2022/08/05 02:09:54;;;;;;;14.70;7.55;;;;;;;17.35;100.00;101455.34;4933502;29;20047;-70
2022/08/05 02:12:31;;;;;;;16.25;9.23;;;;;;;17.37;100.00;101468.69;4942627;29;20046;-69
2022/08/05 02:15:05;;;;;;;20.85;8.90;;;;;;;17.49;100.00;101475.78;4942500;29;20043;-69
2022/08/05 02:17:38;;;;;;;18.85;8.13;;;;;;;17.61;100.00;101480.16;4940440;29;20095;-69
2022/08/05 02:20:10;;;;;;;17.02;8.02;;;;;;;17.57;100.00;101486.78;4931940;28;20035;-70
2022/08/05 02:22:40;;;;;;;17.40;8.63;;;;;;;17.47;100.00;101486.72;4940618;29;20047;-69
2022/08/05 02:25:17;;;;;;;16.23;8.45;;;;;;;17.47;100.00;101502.00;4944882;28;20199;-70
2022/08/05 02:27:47;;;;;;;13.50;8.25;;;;;;;17.54;100.00;101496.00;4951912;28;20143;-69
2022/08/05 02:30:14;;;;;;;20.33;8.77;;;;;;;17.66;100.00;101501.34;4941773;28;20067;-69
2022/08/05 02:32:41;;;;;;;20.48;8.57;;;;;;;17.74;100.00;101504.31;4941804;29;20043;-69
2022/08/05 02:35:12;;;;;;;14.25;8.50;;;;;;;17.76;100.00;101499.63;4941792;29;20436;-70
2022/08/05 02:37:40;;;;;;;15.25;8.57;;;;;;;17.57;100.00;101490.38;4941485;28;20035;-69
2022/08/05 02:40:08;;;;;;;14.98;8.45;;;;;;;17.50;100.00;101489.13;4942099;28;20891;-69
2022/08/05 02:42:35;;;;;;;15.60;8.85;;;;;;;17.61;100.00;101486.41;4941964;29;20123;-70
2022/08/05 02:45:02;;;;;;;17.73;9.55;;;;;;;17.62;100.00;101481.91;4940358;29;20043;-69
2022/08/05 02:47:30;;;;;;;21.95;9.65;;;;;;;17.54;100.00;101465.47;4941047;28;20093;-69
2022/08/05 02:49:57;;;;;;;16.63;9.48;;;;;;;17.28;100.00;101444.22;4941277;28;20101;-70
2022/08/05 02:52:23;;;;;;;20.70;10.18;;;;;;;17.19;100.00;101450.34;4922346;29;20047;-69
2022/08/05 02:54:50;;;;;;;24.02;10.05;;;;;;;17.28;100.00;101452.31;4942194;28;20050;-69
2022/08/05 02:57:18;;;;;;;17.33;9.40;;;;;;;17.18;100.00;101462.13;4940918;28;20031;-69
2022/08/05 02:59:45;;;;;;;17.58;9.73;;;;;;;17.24;100.00;101458.06;4940616;28;20054;-69
2022/08/05 03:02:13;;;;;;;19.42;10.75;;;;;;;17.26;100.00;101453.41;4921914;29;20463;-69
2022/08/05 03:04:41;;;;;;;18.65;10.25;;;;;;;17.23;100.00;101449.13;4926693;28;20090;-69
2022/08/05 03:07:08;;;;;;;18.92;10.38;;;;;;;17.22;100.00;101443.84;4939252;28;20452;-70
2022/08/05 03:09:35;;;;;;;18.52;10.02;;;;;;;17.19;100.00;101438.72;4936454;28;20150;-69
2022/08/05 03:12:00;;;;;;;18.48;10.95;;;;;;;17.23;100.00;101442.88;4931612;28;20475;-69
2022/08/05 03:14:26;;;;;;;16.25;10.57;;;;;;;17.20;100.00;101440.44;4938744;28;20035;-69
2022/08/05 03:16:51;;;;;;;25.20;11.13;;;;;;;17.31;100.00;101449.34;4941028;29;20054;-69
2022/08/05 03:19:17;;;;;;;21.13;10.55;;;;;;;17.43;100.00;101465.50;4940001;28;20047;-69
2022/08/05 03:21:44;;;;;;;24.25;11.52;;;;;;;17.53;100.00;101483.50;4939901;28;20049;-70
2022/08/05 03:24:10;;;;;;;16.90;10.13;;;;;;;17.50;100.00;101480.19;4941560;28;20908;-69
2022/08/05 03:26:36;;;;;;;24.70;10.45;;;;;;;17.38;100.00;101465.03;4951876;28;20043;-69
2022/08/05 03:29:03;;;;;;;20.83;10.15;;;;;;;17.23;100.00;101451.81;4941652;28;20050;-69
2022/08/05 03:31:29;;;;;;;18.63;10.88;;;;;;;17.23;100.00;101443.75;4941202;28;20246;-69
2022/08/05 03:33:56;;;;;;;17.33;10.85;;;;;;;17.33;100.00;101444.69;4941088;28;20046;-69
2022/08/05 03:36:21;;;;;;;20.55;11.52;;;;;;;17.42;100.00;101450.28;4939735;29;20047;-68
2022/08/05 03:38:47;;;;;;;18.35;10.00;;;;;;;17.44;100.00;101454.59;4933692;28;20043;-69
2022/08/05 03:41:14;;;;;;;17.90;11.02;;;;;;;17.37;100.00;101450.69;4933194;28;20043;-69
2022/08/05 03:43:40;;;;;;;21.67;11.77;;;;;;;17.41;100.00;101453.97;4940627;29;20062;-69
2022/08/05 03:46:05;;;;;;;21.30;11.35;;;;;;;17.34;100.00;101443.72;4938115;29;20038;-69
2022/08/05 03:48:31;;;;;;;19.48;11.77;;;;;;;17.31;100.00;101435.00;4936393;28;20043;-69
2022/08/05 03:51:14;;;;;;;18.25;10.93;;;;;;;17.15;100.00;101434.56;4921765;29;20039;-69
2022/08/05 03:53:42;;;;;;;20.15;10.30;;;;;;;17.27;100.00;101425.44;4936360;28;20051;-69
2022/08/05 03:56:41;;;;;;;18.67;11.13;;;;;;;17.13;100.00;101414.97;4940790;28;20051;-68
2022/08/05 03:59:12;;;;;;;22.83;11.65;;;;;;;17.17;100.00;101408.31;4928355;28;20034;-69
2022/08/05 04:01:41;;;;;;;20.77;10.98;;;;;;;17.08;100.00;101412.66;4942807;28;20047;-69
2022/08/05 04:04:09;;;;;;;22.10;10.65;;;;;;;17.04;100.00;101432.75;4941226;28;20044;-69
2022/08/05 04:06:35;;;;;;;23.20;11.27;;;;;;;17.14;100.00;101447.19;4935114;28;20051;-70
2022/08/05 04:09:04;;;;;;;20.15;10.68;;;;;;;17.29;100.00;101445.94;4941488;28;20043;-69
2022/08/05 04:11:30;;;;;;;26.33;10.75;;;;;;;17.39;100.00;101461.34;4931942;29;20050;-69
2022/08/05 04:13:56;;;;;;;21.65;11.57;;;;;;;17.32;100.00;101456.47;4943885;28;20039;-69
2022/08/05 04:16:22;;;;;;;22.40;11.15;;;;;;;17.28;100.00;101454.16;4943270;29;20051;-69
2022/08/05 04:18:48;;;;;;;28.50;10.57;;;;;;;17.16;100.00;101445.19;4944415;28;20051;-69
2022/08/05 04:21:13;;;;;;;22.35;10.32;;;;;;;17.04;100.00;101425.50;4930713;28;20043;-69
2022/08/05 04:23:42;;;;;;;20.05;10.55;;;;;;;17.21;100.00;101436.75;4944424;29;20051;-69
2022/08/05 04:26:07;;;;;;;22.63;11.80;;;;;;;17.29;100.00;101439.69;4930699;28;20055;-69
2022/08/05 04:28:33;;;;;;;17.23;9.30;;;;;;;17.33;100.00;101443.84;4942698;29;20058;-68
2022/08/05 04:30:59;;;;;;;21.45;9.80;;;;;;;17.16;100.00;101434.41;4943473;29;20241;-68
2022/08/05 04:33:25;;;;;;;21.10;10.65;;;;;;;17.17;100.00;101428.06;4914368;29;20034;-71
2022/08/05 04:35:52;;;;;;;22.17;10.27;;;;;;;17.17;100.00;101421.81;4944962;29;20042;-69
2022/08/05 04:38:17;;;;;;;23.52;9.93;;;;;;;17.03;100.00;101421.09;4941135;28;20547;-69
2022/08/05 04:40:43;;;;;;;22.23;9.88;;;;;;;17.09;100.00;101423.28;4943053;29;20042;-69
2022/08/05 04:43:09;;;;;;;19.60;10.15;;;;;;;17.18;100.00;101431.63;4942150;28;20762;-70
2022/08/05 04:45:36;;;;;;;19.58;10.43;;;;;;;17.26;100.00;101435.38;4933720;29;20035;-69
2022/08/05 04:48:12;;;;;;;24.40;10.68;;;;;;;17.22;100.00;101446.53;4931057;28;20040;-69
2022/08/05 04:50:46;;;;;;;18.05;9.75;;;;;;;17.32;100.00;101456.47;4944071;28;20042;-68
2022/08/05 04:53:14;;;;;;;18.25;9.25;;;;;;;17.39;100.00;101458.66;4943617;28;20043;-69
2022/08/05 04:55:42;;;;;;;22.50;10.23;;;;;;;17.49;100.00;101465.84;4941703;28;20031;-69
2022/08/05 04:58:10;;;;;;;17.88;10.57;;;;;;;17.55;100.00;101467.19;4937969;28;20050;-69
2022/08/05 05:00:40;;;;;;;19.20;11.07;;;;;;;17.58;100.00;101467.78;4939408;28;20054;-70
2022/08/05 05:03:07;;;;;;;17.33;9.50;;;;;;;17.64;100.00;101482.59;4941657;28;20929;-70
2022/08/05 05:05:33;;;;;;;20.63;10.30;;;;;;;17.69;100.00;101491.19;4934265;29;20078;-71
2022/08/05 05:08:04;;;;;;;21.40;10.68;;;;;;;17.73;100.00;101489.13;4932710;28;20047;-70
2022/08/05 05:10:31;;;;;;;24.52;11.48;;;;;;;17.69;100.00;101495.72;4935051;28;20454;-70
2022/08/05 05:12:57;;;;;;;17.65;8.82;;;;;;;17.73;100.00;101497.22;4933531;28;20110;-71
2022/08/05 05:15:22;;;;;;;18.10;9.55;;;;;;;17.65;100.00;101499.66;4932967;29;20047;-70
2022/08/05 05:17:48;;;;;;;18.42;10.35;;;;;;;17.49;100.00;101500.06;4938324;29;20051;-71
2022/08/05 05:20:14;;;;;;;19.10;9.80;;;;;;;17.71;100.00;101502.69;4934583;28;20043;-71
2022/08/05 05:22:40;;;;;;;20.42;9.52;;;;;;;17.73;100.00;101503.47;4933692;29;20053;-71
2022/08/05 05:25:07;;;;;;;14.68;9.23;;;;;;;17.75;100.00;101501.47;4936293;28;20043;-72
2022/08/05 05:27:33;;;;;;;18.58;9.93;;;;;;;17.68;100.00;101500.25;4936205;29;20051;-71
2022/08/05 05:29:59;;;;;;;24.90;10.10;;;;;;;17.52;100.00;101499.78;4936851;28;20050;-71
2022/08/05 05:32:25;;;;;;;17.08;8.93;;;;;;;17.54;100.00;101496.00;4940283;29;20047;-71
2022/08/05 05:34:50;;;;;;;18.77;9.18;;;;;;;17.67;100.00;101493.16;4930951;28;20043;-71
2022/08/05 05:37:16;;;;;;;14.07;9.20;;;;;;;17.96;100.00;101498.81;4941904;29;20067;-71
2022/08/05 05:39:41;;;;;;;13.27;9.45;;;;;;;17.93;100.00;101487.47;4941748;28;20054;-71
2022/08/05 05:42:07;;;;;;;20.88;9.18;;;;;;;17.85;100.00;101490.78;4943032;28;20094;-71
2022/08/05 05:44:33;;;;;;;20.70;9.20;;;;;;;17.92;100.00;101496.50;4939744;29;20494;-71
2022/08/05 05:46:58;;;;;;;15.85;9.98;;;;;;;17.86;100.00;101487.09;4941953;28;20039;-71
2022/08/05 05:49:25;;;;;;;17.25;8.93;;;;;;;17.91;100.00;101478.63;4942236;29;20039;-72
2022/08/05 05:51:50;;;;;;;14.77;9.30;;;;;;;17.91;100.00;101484.88;4944370;29;20058;-73
2022/08/05 05:54:16;;;;;;;15.68;8.63;;;;;;;17.94;100.00;101490.00;4940370;28;20043;-72
2022/08/05 05:56:41;;;;;;;16.65;8.75;;;;;;;18.03;100.00;101488.41;4937063;28;20047;-72
2022/08/05 05:59:07;;;;;;;13.35;8.85;;;;;;;17.98;100.00;101482.53;4934743;28;20042;-73
2022/08/05 06:01:38;;;;;;;14.73;8.00;;;;;;;17.72;100.00;101485.53;4936206;28;20543;-72
2022/08/05 06:04:13;;;;;;;19.13;9.52;;;;;;;17.84;100.00;101478.28;4938359;29;20051;-71
2022/08/05 06:06:41;;;;;;;16.13;8.63;;;;;;;18.05;100.00;101489.09;4944575;28;20031;-73
2022/08/05 06:09:06;;;;;;;14.52;9.35;;;;;;;18.09;100.00;101487.88;4942832;28;20031;-72
2022/08/05 06:11:32;;;;;;;13.77;7.80;;;;;;;17.93;100.00;101492.84;4944830;28;20035;-72
2022/08/05 06:13:58;;;;;;;18.00;8.88;;;;;;;17.86;100.00;101492.50;4934581;29;20031;-72
2022/08/05 06:16:24;;;;;;;14.80;9.10;;;;;;;17.97;100.00;101502.38;4938726;28;20153;-72
2022/08/05 06:18:50;;;;;;;19.65;9.43;;;;;;;18.03;100.00;101512.69;4940147;28;20051;-72
2022/08/05 06:21:16;;;;;;;16.88;8.57;;;;;;;17.92;100.00;101512.69;4936229;28;20058;-71
2022/08/05 06:23:41;;;;;;;20.27;9.00;;;;;;;17.75;100.00;101514.97;4939914;28;20047;-72
2022/08/05 06:26:07;;;;;;;13.57;8.52;;;;;;;17.90;100.00;101514.69;4969353;28;20034;-71
2022/08/05 06:28:35;;;;;;;18.70;9.02;;;;;;;18.08;100.00;101518.56;4930417;29;20131;-71
2022/08/05 06:31:01;;;;;;;20.80;8.73;;;;;;;17.98;100.00;101523.00;4946593;29;20039;-72
2022/08/05 06:33:26;;;;;;;17.98;8.60;;;;;;;18.06;100.00;101515.09;4936281;28;20420;-71
2022/08/05 06:35:52;;;;;;;20.80;9.60;;;;;;;17.89;100.00;101521.94;4941608;28;20036;-71
2022/08/05 06:38:17;;;;;;;17.65;8.13;;;;;;;18.11;100.00;101529.94;4936416;28;20047;-72
2022/08/05 06:40:45;;;;;;;16.15;9.27;;;;;;;18.16;100.00;101532.25;4944306;29;20056;-72
2022/08/05 06:43:12;;;;;;;16.45;8.10;;;;;;;18.52;100.00;101522.84;4947681;28;20047;-71
2022/08/05 06:45:37;;;;;;;14.75;7.75;;;;;;;18.55;100.00;101525.28;4946812;29;20042;-72
2022/08/05 06:48:03;;;;;;;12.02;7.45;;;;;;;18.44;100.00;101528.06;4946984;28;20047;-72
2022/08/05 06:50:29;;;;;;;16.55;7.82;;;;;;;18.67;100.00;101527.91;4943745;28;20039;-72
2022/08/05 06:52:55;;;;;;;12.27;7.38;;;;;;;18.33;100.00;101534.38;4945543;28;20043;-71
2022/08/05 06:55:20;;;;;;;18.42;7.97;;;;;;;18.45;100.00;101532.47;4945990;28;20037;-72
2022/08/05 06:57:46;;;;;;;12.25;7.40;;;;;;;18.69;100.00;101534.94;4936757;28;20035;-72
2022/08/05 07:00:11;;;;;;;16.05;7.95;;;;;;;18.75;100.00;101522.75;4946779;28;20055;-72
2022/08/05 07:02:49;;;;;;;12.43;7.65;;;;;;;18.78;100.00;101525.19;4945259;28;20039;-71
2022/08/05 07:05:15;;;;;;;17.25;7.68;;;;;;;18.59;100.00;101526.75;4946591;28;20043;-72
2022/08/05 07:07:42;;;;;;;11.27;7.50;;;;;;;18.67;100.00;101530.63;4942349;28;20072;-72
2022/08/05 07:10:11;;;;;;;15.02;8.13;;;;;;;18.67;100.00;101539.56;4936939;28;20055;-73
2022/08/05 07:18:05;;;;;;;16.65;6.82;;;;;;;19.23;100.00;101549.13;4947431;28;20058;-72
2022/08/05 07:20:30;;;;;;;15.68;7.78;;;;;;;18.71;100.00;101559.97;4948279;28;20047;-71
2022/08/05 07:22:56;;;;;;;14.13;7.82;;;;;;;18.67;100.00;101558.47;4948057;28;20039;-72
2022/08/05 07:25:21;;;;;;;17.17;7.78;;;;;;;19.05;100.00;101560.59;4953428;28;20038;-72
2022/08/05 07:27:50;;;;;;;13.98;7.40;;;;;;;19.09;100.00;101564.75;4948612;29;20078;-72
2022/08/05 07:30:16;;;;;;;17.23;8.30;;;;;;;19.21;100.00;101572.75;4945238;29;20039;-72
2022/08/05 07:32:41;;;;;;;15.30;6.72;;;;;;;19.25;100.00;101576.91;4946960;28;20654;-72
2022/08/05 07:35:11;;;;;;;15.70;7.63;;;;;;;19.35;100.00;101583.22;4945916;28;20060;-72
2022/08/05 07:37:40;;;;;;;14.00;7.10;;;;;;;19.15;100.00;101584.97;4946857;29;20042;-72
2022/08/05 07:40:06;;;;;;;13.50;6.88;;;;;;;19.28;100.00;101584.78;4946807;29;20047;-72
2022/08/05 07:42:32;;;;;;;12.93;7.07;;;;;;;19.55;100.00;101585.00;4938935;28;20035;-72
2022/08/05 07:44:58;;;;;;;9.57;6.35;;;;;;;19.49;100.00;101587.41;4938312;29;20046;-72
2022/08/05 07:47:24;;;;;;;14.80;6.90;;;;;;;19.47;100.00;101586.69;4942402;28;20067;-72
2022/08/05 07:49:53;;;;;;;13.18;7.05;;;;;;;19.56;100.00;101589.41;4939790;29;20536;-72
2022/08/05 07:52:21;;;;;;;14.80;6.50;;;;;;;19.77;100.00;101592.06;4936811;28;20114;-72
2022/08/05 07:54:46;;;;;;;10.88;5.47;;;;;;;19.78;100.00;101582.09;4942080;29;20071;-72
2022/08/05 07:57:12;;;;;;;21.15;6.57;;;;;;;19.83;100.00;101583.44;4938766;28;20122;-72
2022/08/05 07:59:37;;;;;;;7.20;4.78;;;;;;;19.97;100.00;101578.59;4936544;28;20093;-72
2022/08/05 08:02:03;;;;;;;8.52;5.03;;;;;;;19.59;100.00;101581.06;4933926;28;20040;-72
2022/08/05 08:04:28;;;;;;;13.40;5.53;;;;;;;19.86;100.00;101584.97;4941721;28;20101;-72
2022/08/05 08:06:54;;;;;;;9.07;5.13;;;;;;;19.86;100.00;101582.28;4938608;29;20027;-72
2022/08/05 08:09:23;;;;;;;10.10;4.82;;;;;;;20.49;100.00;101584.66;4944506;28;20043;-72
2022/08/05 08:11:48;;;;;;;8.00;4.93;;;;;;;21.03;100.00;101585.81;4940710;29;20043;-72
2022/08/05 08:14:14;;;;;;;6.63;4.28;;;;;;;20.88;100.00;101589.03;4940267;28;20597;-72
2022/08/05 08:16:39;;;;;;;6.97;4.32;;;;;;;20.76;100.00;101587.47;4940172;28;20050;-72
2022/08/05 08:19:05;;;;;;;9.88;4.90;;;;;;;20.79;100.00;101586.31;4936401;29;20043;-72
2022/08/05 08:21:30;;;;;;;8.85;5.00;;;;;;;20.92;100.00;101587.69;4935871;28;20039;-72
2022/08/05 08:23:56;;;;;;;11.40;4.95;;;;;;;20.86;100.00;101593.72;4939986;28;20051;-72
2022/08/05 08:26:21;;;;;;;9.43;4.07;;;;;;;20.82;100.00;101583.31;4935084;28;20062;-72
2022/08/05 08:28:47;;;;;;;11.50;4.82;;;;;;;20.81;100.00;101589.72;4936134;28;20039;-72
2022/08/05 08:31:12;;;;;;;11.80;4.28;;;;;;;20.96;100.00;101590.97;4934826;28;20511;-72
2022/08/05 08:33:38;;;;;;;13.02;3.97;;;;;;;20.99;96.44;101598.00;4938639;28;20077;-71
2022/08/05 08:36:07;;;;;;;7.85;4.13;;;;;;;20.80;100.00;101593.44;4934006;28;20059;-72
2022/08/05 08:38:33;;;;;;;9.18;3.67;;;;;;;20.96;93.88;101607.25;4937813;29;20101;-72
2022/08/05 08:41:01;;;;;;;8.73;3.42;;;;;;;21.29;94.90;101605.88;4939165;29;20039;-72
2022/08/05 08:43:27;;;;;;;5.53;2.88;;;;;;;21.07;90.14;101625.22;4942161;28;20047;-72
2022/08/05 08:45:54;;;;;;;10.23;3.22;;;;;;;21.40;90.59;101616.59;4940356;28;20094;-71
2022/08/05 08:48:20;;;;;;;6.28;3.03;;;;;;;21.40;87.64;101624.72;4939582;28;20845;-72
2022/08/05 08:50:46;;;;;;;5.55;2.97;;;;;;;21.79;89.65;101629.97;4940780;29;20502;-71
2022/08/05 08:53:15;;;;;;;4.40;2.88;;;;;;;21.73;87.58;101631.41;4943952;28;20090;-71
2022/08/05 08:55:40;;;;;;;7.72;3.38;;;;;;;22.07;85.14;101629.94;4938667;28;20489;-72
2022/08/05 08:58:06;;;;;;;8.82;2.28;;;;;;;22.21;80.99;101634.91;4937755;28;20046;-71
2022/08/05 09:00:32;;;;;;;3.25;1.77;;;;;;;22.00;81.54;101643.31;4936800;28;20047;-71
2022/08/05 09:02:58;;;;;;;5.30;1.90;;;;;;;21.41;81.81;101644.56;4940793;29;20051;-71
2022/08/05 09:05:24;;;;;;;3.50;1.92;;;;;;;21.71;79.28;101643.44;4940469;28;20046;-73
2022/08/05 09:07:51;;;;;;;4.63;1.52;;;;;;;22.48;75.09;101642.97;4935508;28;20103;-72
2022/08/05 09:10:18;;;;;;;4.40;1.15;;;;;;;22.53;73.23;101633.50;4932894;28;20047;-72
2022/08/05 09:12:44;;;;;;;2.42;1.75;;;;;;;21.73;77.69;101657.72;4936462;28;20526;-74
2022/08/05 09:15:10;;;;;;;4.38;1.70;;;;;;;21.71;76.71;101657.88;4933072;28;20049;-73
2022/08/05 09:17:35;;;;;;;3.83;1.90;;;;;;;21.79;75.79;101659.84;4936049;28;20043;-72
2022/08/05 09:20:02;;;;;;;6.22;1.58;;;;;;;22.34;72.20;101648.97;4936268;28;20039;-72
2022/08/05 09:22:28;;;;;;;3.50;1.52;;;;;;;22.81;71.80;101647.88;4934782;28;20473;-72
2022/08/05 09:24:58;;;;;;;3.95;1.85;;;;;;;23.06;69.25;101654.38;4936666;28;20156;-72
2022/08/05 09:27:34;;;;;;;3.53;1.55;;;;;;;22.98;72.61;101653.28;4932553;29;20048;-73
2022/08/05 09:30:00;;;;;;;3.67;1.95;;;;;;;22.96;70.53;101654.47;4936196;29;20035;-72
2022/08/05 09:32:36;;;;;;;4.53;1.63;;;;;;;21.91;72.64;101660.50;4934113;29;20081;-72
2022/08/05 09:35:15;;;;;;;7.60;2.35;;;;;;;21.82;72.64;101667.69;4940366;28;20227;-72
2022/08/05 09:37:52;;;;;;;4.57;2.33;;;;;;;21.45;77.64;101671.28;4937341;28;20047;-72
2022/08/05 09:40:32;;;;;;;9.20;2.65;;;;;;;20.83;83.31;101669.06;4951862;28;20090;-72
2022/08/05 09:42:58;;;;;;;7.10;2.55;;;;;;;20.85;80.83;101680.63;4937309;28;20480;-73
2022/08/05 09:45:35;;;;;;;2.92;2.20;;;;;;;20.57;83.31;101694.03;4941736;28;20114;-72
2022/08/05 09:48:17;;;;;;;3.38;2.15;;;;;;;20.32;83.48;101686.41;4940108;29;20629;-70
2022/08/05 09:50:51;;;;;;;3.42;1.63;;;;;;;20.08;84.87;101695.78;4939769;29;20043;-73
2022/08/05 09:53:21;;;;;;;3.35;1.80;;;;;;;20.20;85.28;101696.50;4938476;28;20051;-71
2022/08/05 09:55:51;;;;;;;5.53;2.03;;;;;;;20.53;85.79;101695.28;4940217;29;20050;-72
2022/08/05 09:58:17;;;;;;;2.47;2.03;;;;;;;20.90;81.00;101687.34;4932008;28;20047;-71
2022/08/05 10:01:05;;;;;;;5.20;2.00;;;;;;;21.04;83.85;101691.47;4934451;28;20075;-71
2022/08/05 10:03:32;;;;;;;7.07;1.90;;;;;;;21.15;77.26;101695.88;4951159;28;20504;-72
2022/08/05 10:06:01;;;;;;;3.13;1.88;;;;;;;21.21;76.98;101704.28;4938926;28;20067;-71
2022/08/05 10:08:26;;;;;;;4.03;1.17;;;;;;;21.53;73.71;101694.09;4934398;28;20553;-71
2022/08/05 10:10:52;;;;;;;3.97;2.05;;;;;;;22.96;72.20;101687.97;4937819;29;20040;-71
2022/08/05 10:13:31;;;;;;;8.73;1.45;;;;;;;23.17;66.79;101684.91;4932547;29;20142;-71
2022/08/05 10:15:57;;;;;;;2.35;1.15;;;;;;;23.17;65.28;101684.06;4930734;28;20566;-72
2022/08/05 10:18:24;;;;;;;2.80;0.95;;;;;;;22.71;65.85;101677.88;4927300;29;20043;-71
2022/08/05 10:20:52;;;;;;;2.60;1.13;;;;;;;23.48;62.90;101681.69;4934927;29;20053;-71
2022/08/05 10:23:34;;;;;;;7.35;1.13;;;;;;;23.42;64.29;101688.66;4938620;28;20594;-71
2022/08/05 10:26:08;;;;;;;2.58;0.80;;;;;;;23.07;61.38;101684.16;4929006;28;20041;-71
2022/08/05 10:28:35;;;;;;;1.83;1.02;;;;;;;23.81;61.88;101685.50;4932221;28;20567;-71
2022/08/05 10:31:01;;;;;;;5.47;1.13;;;;;;;24.15;61.84;101681.91;4936933;29;20143;-70
2022/08/05 10:33:30;;;;;;;2.45;1.35;;;;;;;24.17;57.88;101683.41;4933839;28;20036;-72
2022/08/05 10:35:56;;;;;;;4.38;0.90;;;;;;;22.98;63.23;101694.09;4937411;28;20043;-73
2022/08/05 10:38:27;;;;;;;4.07;1.20;;;;;;;22.87;61.53;101694.31;4936749;29;20120;-71
2022/08/05 10:41:33;;;;;;;1.00;0.90;;;;;;;22.23;63.78;101711.66;4940229;29;20416;-71
2022/08/05 10:44:04;;;;;;;1.85;0.60;;;;;;;22.28;56.25;101708.50;4946090;29;20031;-71
2022/08/05 10:46:51;;;;;;;2.63;0.75;;;;;;;22.41;54.47;101706.28;4944936;28;20043;-71
2022/08/05 10:49:17;;;;;;;2.45;0.70;;;;;;;23.07;54.67;101700.47;4938117;28;20129;-71
2022/08/05 10:51:47;;;;;;;1.25;0.70;;;;;;;23.22;53.32;101701.59;4941065;28;20043;-72
2022/08/05 10:54:13;;;;;;;2.60;0.63;;;;;;;23.78;48.32;101708.47;4939252;28;20175;-72
2022/08/05 10:56:54;;;;;;;0.80;0.50;;;;;;;24.93;44.64;101693.28;4941631;28;20039;-71
2022/08/05 10:59:28;;;;;;;1.08;0.68;;;;;;;23.98;50.64;101697.31;4935235;28;20058;-71
2022/08/05 11:02:11;;;;;;;6.18;0.90;;;;;;;24.21;50.70;101712.06;4938444;29;20055;-71
2022/08/05 11:04:47;;;;;;;1.15;0.50;;;;;;;23.79;49.66;101720.19;4938338;29;20058;-71
2022/08/05 11:07:17;;;;;;;1.27;0.50;;;;;;;24.33;50.56;101723.50;4936701;29;20043;-71
2022/08/05 11:09:45;;;;;;;0.50;0.50;;;;;;;23.86;47.91;101725.88;4938581;29;20042;-72
2022/08/05 11:12:37;;;;;;;2.05;1.13;;;;;;;23.34;47.92;101721.25;4936927;28;20047;-72
2022/08/05 11:15:29;;;;;;;1.30;0.63;;;;;;;23.17;49.09;101735.75;4944656;28;20130;-72
2022/08/05 11:18:23;;;;;;;2.90;0.88;;;;;;;23.02;48.44;101732.75;4937117;29;20569;-71
2022/08/05 11:20:52;;;;;;;2.38;1.00;;;;;;;23.01;47.68;101744.63;4936176;28;20039;-71
2022/08/05 11:23:45;;;;;;;1.35;0.70;;;;;;;23.80;45.82;101743.72;4932192;28;20043;-71